Time;durP1;ratioP1;P1;durP2;ratioP2;P2;SDS_P1;SDS_P2;PMS_P1;PMS_P2;Temp;Humidity;BMP_temperature;BMP_pressure;BME280_temperature;BME280_humidity;BME280_pressure;Samples;Min_cycle;Max_cycle;Signal;HPM_P1;HPM_P2
2021/04/10 00:01:56;;;;;;;12.77;8.20;;;10.70;99.80;;;;;;5041971;28;20533;-84
2021/04/10 00:04:25;;;;;;;16.93;8.10;;;10.60;99.80;;;;;;5034502;28;20497;-84
2021/04/10 00:06:52;;;;;;;10.90;7.33;;;10.60;99.80;;;;;;5042424;28;20481;-84
2021/04/10 00:09:19;;;;;;;10.63;7.00;;;10.60;99.80;;;;;;5037086;28;20550;-85
2021/04/10 00:11:46;;;;;;;10.13;6.80;;;10.50;99.80;;;;;;5021963;28;20488;-83
2021/04/10 00:14:16;;;;;;;7.60;6.80;;;10.50;99.80;;;;;;5039595;28;20519;-83
2021/04/10 00:16:43;;;;;;;13.50;7.20;;;10.50;99.80;;;;;;5048859;28;20477;-82
2021/04/10 00:19:11;;;;;;;11.23;6.00;;;10.50;99.80;;;;;;5045884;28;20475;-85
2021/04/10 00:21:39;;;;;;;10.37;6.50;;;10.50;99.80;;;;;;5042271;28;20539;-86
2021/04/10 00:24:08;;;;;;;8.37;6.07;;;10.50;99.80;;;;;;5051720;28;20471;-85
2021/04/10 00:26:35;;;;;;;11.33;5.90;;;10.50;99.80;;;;;;5037222;28;20512;-84
2021/04/10 00:29:04;;;;;;;5.83;5.20;;;10.50;99.80;;;;;;5033960;28;20477;-83
2021/04/10 00:31:33;;;;;;;6.80;4.87;;;10.50;99.80;;;;;;5041519;28;20466;-83
2021/04/10 00:34:00;;;;;;;7.73;4.87;;;10.60;99.80;;;;;;5053805;28;20531;-85
2021/04/10 00:36:27;;;;;;;12.83;5.80;;;10.70;99.80;;;;;;5048844;28;20540;-83
2021/04/10 00:38:55;;;;;;;8.30;6.17;;;10.70;99.70;;;;;;5041806;28;20486;-86
2021/04/10 00:41:24;;;;;;;11.77;6.43;;;10.70;99.80;;;;;;5029210;28;20558;-83
2021/04/10 00:43:51;;;;;;;8.73;5.50;;;10.70;99.80;;;;;;5049468;28;20538;-84
2021/04/10 00:46:18;;;;;;;9.83;5.73;;;10.60;99.80;;;;;;5034968;28;21056;-82
2021/04/10 00:48:47;;;;;;;9.77;5.47;;;10.60;99.80;;;;;;5009120;28;20534;-82
2021/04/10 00:51:14;;;;;;;7.97;5.60;;;10.60;99.80;;;;;;5043948;28;20512;-81
2021/04/10 00:53:43;;;;;;;7.53;5.90;;;10.50;99.80;;;;;;5028022;28;20562;-84
2021/04/10 00:56:11;;;;;;;8.37;6.20;;;10.40;99.80;;;;;;5035885;28;20470;-81
2021/04/10 00:58:40;;;;;;;11.77;6.83;;;10.40;99.80;;;;;;5042712;28;20562;-80
2021/04/10 01:01:07;;;;;;;14.77;6.90;;;10.30;99.80;;;;;;5021945;28;20467;-82
2021/04/10 01:03:35;;;;;;;10.87;6.43;;;10.20;99.80;;;;;;5050470;28;20524;-82
2021/04/10 01:06:02;;;;;;;11.40;7.27;;;10.10;99.80;;;;;;5051785;28;20484;-82
2021/04/10 01:08:30;;;;;;;10.53;7.07;;;10.00;99.80;;;;;;5032108;28;20501;-83
2021/04/10 01:11:04;;;;;;;11.13;6.73;;;9.90;99.80;;;;;;5037381;28;20498;-83
2021/04/10 01:13:46;;;;;;;13.90;7.77;;;9.80;99.80;;;;;;5027998;28;20561;-85
2021/04/10 01:16:18;;;;;;;9.00;7.50;;;9.70;99.80;;;;;;5042598;28;20475;-83
2021/04/10 01:18:53;;;;;;;11.67;8.20;;;9.60;99.80;;;;;;5035931;28;20489;-83
2021/04/10 01:21:28;;;;;;;12.73;7.97;;;9.50;99.80;;;;;;5039116;28;20483;-85
2021/04/10 01:24:24;;;;;;;14.57;8.87;;;9.50;99.80;;;;;;5042076;28;20478;-84
2021/04/10 01:27:33;;;;;;;9.53;7.90;;;9.40;99.80;;;;;;5035882;28;20482;-84
2021/04/10 01:30:09;;;;;;;10.80;8.43;;;9.30;99.80;;;;;;5021073;28;20471;-83
2021/04/10 01:32:42;;;;;;;15.63;8.90;;;9.20;99.80;;;;;;5045901;28;20557;-86
2021/04/10 01:35:13;;;;;;;12.83;8.93;;;9.20;99.80;;;;;;5035110;28;20475;-84
2021/04/10 01:37:47;;;;;;;16.77;9.83;;;9.20;99.80;;;;;;5040222;28;20542;-84
2021/04/10 01:40:17;;;;;;;12.10;9.03;;;9.10;99.80;;;;;;5028339;28;20643;-84
2021/04/10 01:42:47;;;;;;;14.07;10.27;;;9.10;99.80;;;;;;5030416;28;20893;-82
2021/04/10 01:45:16;;;;;;;11.57;9.30;;;9.10;99.80;;;;;;5029932;28;20481;-82
2021/04/10 01:47:45;;;;;;;13.80;9.53;;;9.10;99.80;;;;;;5038256;28;20458;-82
2021/04/10 01:50:12;;;;;;;13.33;9.97;;;9.10;99.80;;;;;;5041678;28;20463;-82
2021/04/10 01:52:40;;;;;;;19.37;9.87;;;9.10;99.80;;;;;;5034843;28;20472;-83
2021/04/10 01:55:11;;;;;;;10.90;8.83;;;9.00;99.80;;;;;;5045656;28;20552;-81
2021/04/10 01:57:39;;;;;;;19.33;10.17;;;9.00;99.80;;;;;;5045565;28;20466;-85
2021/04/10 02:00:10;;;;;;;14.70;10.43;;;9.00;99.80;;;;;;5011311;28;20479;-84
2021/04/10 02:02:40;;;;;;;16.97;10.20;;;9.00;99.80;;;;;;5037304;28;20439;-84
2021/04/10 02:05:10;;;;;;;12.70;9.07;;;9.00;99.80;;;;;;5037979;28;20497;-83
2021/04/10 02:07:39;;;;;;;14.13;10.30;;;8.90;99.80;;;;;;5039055;28;20473;-84
2021/04/10 02:10:09;;;;;;;15.60;10.10;;;8.90;99.80;;;;;;5053673;28;20447;-82
2021/04/10 02:12:41;;;;;;;16.47;10.60;;;8.90;99.80;;;;;;5057725;28;20518;-84
2021/04/10 02:15:11;;;;;;;19.30;10.87;;;8.90;99.80;;;;;;5053757;28;20457;-84
2021/04/10 02:17:40;;;;;;;18.40;12.90;;;8.90;99.80;;;;;;5021054;28;20534;-82
2021/04/10 02:20:11;;;;;;;13.40;9.60;;;8.90;99.80;;;;;;5015177;28;20475;-83
2021/04/10 02:22:38;;;;;;;21.57;12.17;;;8.80;99.80;;;;;;5018382;28;20530;-85
2021/04/10 02:25:06;;;;;;;16.20;10.07;;;8.80;99.80;;;;;;5020070;28;20566;-83
2021/04/10 02:27:34;;;;;;;14.20;10.77;;;8.80;99.80;;;;;;5028582;28;20464;-84
2021/04/10 02:30:02;;;;;;;15.70;11.60;;;8.70;99.80;;;;;;5038394;28;20470;-82
2021/04/10 02:32:35;;;;;;;16.87;11.70;;;8.80;99.80;;;;;;5032553;28;20988;-83
2021/04/10 02:35:13;;;;;;;17.10;11.30;;;8.60;99.80;;;;;;5029296;28;20528;-84
2021/04/10 02:37:41;;;;;;;19.10;11.43;;;8.60;99.80;;;;;;5034203;28;20499;-82
2021/04/10 02:40:09;;;;;;;18.77;13.23;;;8.50;99.80;;;;;;5045270;28;20464;-81
2021/04/10 02:42:40;;;;;;;16.00;11.70;;;8.50;99.80;;;;;;5051182;28;20550;-83
2021/04/10 02:45:10;;;;;;;24.47;13.50;;;8.40;99.80;;;;;;5051731;28;20570;-84
2021/04/10 02:47:39;;;;;;;16.90;12.10;;;8.40;99.80;;;;;;5056057;28;20663;-83
2021/04/10 02:50:10;;;;;;;20.50;12.40;;;8.30;99.80;;;;;;5070255;28;20491;-84
2021/04/10 02:52:42;;;;;;;19.80;13.13;;;8.30;99.80;;;;;;5045368;28;20491;-81
2021/04/10 02:55:14;;;;;;;23.87;13.17;;;8.30;99.80;;;;;;5040029;28;20475;-82
2021/04/10 02:57:42;;;;;;;24.20;14.63;;;8.30;99.80;;;;;;5033823;28;20561;-82
2021/04/10 03:00:11;;;;;;;18.20;13.63;;;8.30;99.80;;;;;;5031970;28;20473;-82
2021/04/10 03:02:38;;;;;;;22.10;14.40;;;8.30;99.80;;;;;;5009279;28;21226;-83
2021/04/10 03:05:11;;;;;;;24.97;14.73;;;8.30;99.80;;;;;;5023847;28;20472;-84
2021/04/10 03:07:42;;;;;;;21.53;13.43;;;8.30;99.80;;;;;;5030363;28;20543;-85
2021/04/10 03:10:11;;;;;;;23.10;14.60;;;8.30;99.80;;;;;;5042938;28;20478;-83
2021/04/10 03:12:39;;;;;;;20.70;13.80;;;8.20;99.80;;;;;;5045368;28;20558;-84
2021/04/10 03:15:08;;;;;;;24.43;14.40;;;8.30;99.80;;;;;;5031981;28;20471;-83
2021/04/10 03:17:38;;;;;;;20.27;13.67;;;8.20;99.80;;;;;;5058430;28;20557;-83
2021/04/10 03:20:11;;;;;;;25.90;14.47;;;8.20;99.80;;;;;;5037708;28;20464;-85
2021/04/10 03:22:38;;;;;;;23.63;14.20;;;8.20;99.80;;;;;;5046941;28;20468;-86
2021/04/10 03:25:06;;;;;;;24.10;14.87;;;8.20;99.80;;;;;;5044636;28;20506;-84
2021/04/10 03:27:34;;;;;;;23.70;15.47;;;8.20;99.80;;;;;;5040515;28;21007;-83
2021/04/10 03:30:01;;;;;;;21.50;14.90;;;8.20;99.80;;;;;;5041176;28;20487;-84
2021/04/10 03:32:29;;;;;;;21.17;14.43;;;8.20;99.80;;;;;;5041370;28;20549;-82
2021/04/10 03:34:56;;;;;;;21.70;16.37;;;8.20;99.80;;;;;;5023111;28;20463;-84
2021/04/10 03:37:25;;;;;;;27.83;16.07;;;8.10;99.80;;;;;;5023388;28;20490;-83
2021/04/10 03:39:52;;;;;;;25.60;15.57;;;8.10;99.80;;;;;;5030525;28;20478;-84
2021/04/10 03:42:26;;;;;;;21.87;15.30;;;8.10;99.80;;;;;;5031840;28;20546;-82
2021/04/10 03:44:53;;;;;;;24.20;15.00;;;8.20;99.80;;;;;;5023338;28;20486;-82
2021/04/10 03:47:39;;;;;;;27.23;16.60;;;8.20;99.80;;;;;;5048311;28;20551;-82
2021/04/10 03:50:08;;;;;;;26.40;15.97;;;8.20;99.80;;;;;;5038007;28;20501;-83
2021/04/10 03:52:36;;;;;;;26.30;16.50;;;8.20;99.80;;;;;;5043148;28;21004;-82
2021/04/10 03:55:06;;;;;;;26.47;17.33;;;8.20;99.80;;;;;;5047032;28;20467;-80
2021/04/10 03:57:34;;;;;;;29.87;16.87;;;8.20;99.80;;;;;;5041500;28;20498;-82
2021/04/10 04:00:02;;;;;;;23.90;14.57;;;8.20;99.80;;;;;;5038133;28;20541;-82
2021/04/10 04:02:29;;;;;;;32.57;16.03;;;8.20;99.80;;;;;;5048966;28;20564;-85
2021/04/10 04:04:56;;;;;;;27.90;16.53;;;8.20;99.80;;;;;;5034287;28;20562;-84
2021/04/10 04:07:23;;;;;;;26.57;17.13;;;8.30;99.80;;;;;;5029100;28;20474;-82
2021/04/10 04:09:51;;;;;;;23.10;15.20;;;8.20;99.80;;;;;;5014341;28;20562;-83
2021/04/10 04:12:18;;;;;;;23.57;16.10;;;8.20;99.80;;;;;;5028451;28;20474;-83
2021/04/10 04:14:45;;;;;;;27.40;16.57;;;8.20;99.80;;;;;;5045095;28;20475;-82
2021/04/10 04:17:12;;;;;;;25.80;16.37;;;8.20;99.80;;;;;;5027535;28;20451;-81
2021/04/10 04:19:39;;;;;;;27.00;15.93;;;8.20;99.80;;;;;;5022599;28;20476;-82
2021/04/10 04:22:07;;;;;;;25.53;15.47;;;8.10;99.80;;;;;;5035569;28;20477;-82
2021/04/10 04:24:34;;;;;;;31.20;17.20;;;8.10;99.80;;;;;;5043057;28;21011;-83
2021/04/10 04:27:03;;;;;;;25.13;14.87;;;8.00;99.80;;;;;;5040128;28;20478;-82
2021/04/10 04:29:31;;;;;;;28.80;15.67;;;7.90;99.80;;;;;;5045500;28;20798;-83
2021/04/10 04:31:58;;;;;;;32.20;15.77;;;7.90;99.80;;;;;;5049644;28;20478;-81
2021/04/10 04:34:25;;;;;;;21.97;15.77;;;7.90;99.80;;;;;;5047145;28;20521;-82
2021/04/10 04:36:52;;;;;;;27.13;16.07;;;7.90;99.80;;;;;;5051204;28;20561;-82
2021/04/10 04:39:20;;;;;;;29.60;17.53;;;7.80;99.80;;;;;;5036691;28;20478;-81
2021/04/10 04:41:47;;;;;;;29.37;15.47;;;7.80;99.80;;;;;;5031446;28;20479;-79
2021/04/10 04:44:15;;;;;;;25.00;17.00;;;7.80;99.80;;;;;;5034632;28;20834;-82
2021/04/10 04:46:42;;;;;;;29.87;18.63;;;7.80;99.80;;;;;;5044423;28;20834;-81
2021/04/10 04:49:09;;;;;;;27.70;17.57;;;7.80;99.80;;;;;;5035159;28;20512;-80
2021/04/10 04:51:36;;;;;;;32.73;20.07;;;7.80;99.80;;;;;;5017294;28;20478;-83
2021/04/10 04:54:03;;;;;;;26.93;16.50;;;7.80;99.80;;;;;;5034343;28;20469;-81
2021/04/10 04:56:30;;;;;;;28.60;17.50;;;7.80;99.80;;;;;;5042588;28;21005;-81
2021/04/10 04:58:57;;;;;;;36.73;18.57;;;7.80;99.80;;;;;;5022510;28;20539;-80
2021/04/10 05:01:25;;;;;;;29.80;18.00;;;7.90;99.80;;;;;;5018312;28;20485;-81
2021/04/10 05:03:52;;;;;;;31.40;18.60;;;7.90;99.80;;;;;;5048103;28;20490;-84
2021/04/10 05:06:20;;;;;;;25.87;17.37;;;7.90;99.80;;;;;;5045440;28;20502;-83
2021/04/10 05:08:47;;;;;;;23.60;16.27;;;7.90;99.80;;;;;;5042879;28;20916;-80
2021/04/10 05:11:15;;;;;;;28.93;17.10;;;7.90;99.80;;;;;;5030583;28;20471;-80
2021/04/10 05:13:42;;;;;;;25.77;17.10;;;8.00;99.80;;;;;;5025567;28;20491;-82
2021/04/10 05:16:09;;;;;;;26.00;16.30;;;8.00;99.80;;;;;;5045474;28;20508;-82
2021/04/10 05:18:36;;;;;;;28.47;16.93;;;7.90;99.80;;;;;;5046201;28;21019;-82
2021/04/10 05:21:03;;;;;;;26.60;16.70;;;7.90;99.80;;;;;;5034401;28;20482;-80
2021/04/10 05:23:30;;;;;;;29.73;17.40;;;8.00;99.80;;;;;;5038354;28;20489;-82
2021/04/10 05:25:57;;;;;;;32.53;16.53;;;8.00;99.80;;;;;;5040557;28;20459;-81
2021/04/10 05:28:25;;;;;;;25.90;16.90;;;8.00;99.80;;;;;;5032815;28;21020;-82
2021/04/10 05:30:53;;;;;;;26.80;16.90;;;8.00;99.80;;;;;;5043980;28;21145;-81
2021/04/10 05:33:20;;;;;;;27.50;17.53;;;8.00;99.80;;;;;;5051355;28;20496;-81
2021/04/10 05:35:48;;;;;;;27.43;16.63;;;8.10;99.80;;;;;;5041518;28;20558;-81
2021/04/10 05:38:15;;;;;;;24.87;17.47;;;8.10;99.80;;;;;;5043157;28;21127;-81
2021/04/10 05:40:42;;;;;;;26.10;16.83;;;8.10;99.80;;;;;;5046573;28;20561;-81
2021/04/10 05:43:09;;;;;;;25.47;15.97;;;8.10;99.80;;;;;;5026286;28;20463;-81
2021/04/10 05:45:36;;;;;;;25.70;15.77;;;8.20;99.80;;;;;;5042296;28;20477;-83
2021/04/10 05:48:03;;;;;;;30.43;17.03;;;8.20;99.80;;;;;;5046698;28;21328;-82
2021/04/10 05:50:30;;;;;;;25.33;15.90;;;8.20;99.80;;;;;;5046748;28;20467;-82
2021/04/10 05:52:59;;;;;;;33.37;17.77;;;8.30;99.80;;;;;;5039552;28;20551;-82
2021/04/10 05:55:26;;;;;;;28.60;16.57;;;8.30;99.80;;;;;;5030325;28;20478;-84
2021/04/10 05:57:53;;;;;;;26.53;17.43;;;8.40;99.80;;;;;;5028754;28;20460;-83
2021/04/10 06:00:21;;;;;;;29.20;16.90;;;8.40;99.80;;;;;;5025602;28;20498;-82
2021/04/10 06:02:50;;;;;;;20.70;13.60;;;8.40;99.80;;;;;;5041804;28;20497;-82
2021/04/10 06:05:19;;;;;;;29.97;15.47;;;8.40;99.80;;;;;;5040478;28;20478;-81
2021/04/10 06:07:47;;;;;;;20.50;14.23;;;8.40;99.80;;;;;;5051348;28;20463;-82
2021/04/10 06:10:15;;;;;;;24.80;15.60;;;8.50;99.80;;;;;;5052396;28;20480;-82
2021/04/10 06:12:43;;;;;;;25.70;15.40;;;8.50;99.80;;;;;;5039890;28;20483;-80
2021/04/10 06:15:11;;;;;;;26.17;17.10;;;8.50;99.80;;;;;;5042214;28;20484;-80
2021/04/10 06:17:38;;;;;;;24.90;15.87;;;8.50;99.80;;;;;;5052109;28;20558;-82
2021/04/10 06:20:07;;;;;;;23.27;14.93;;;8.40;99.80;;;;;;5052663;28;20463;-81
2021/04/10 06:22:37;;;;;;;25.70;14.67;;;8.50;99.80;;;;;;5045226;28;20494;-81
2021/04/10 06:25:06;;;;;;;25.20;16.20;;;8.50;99.80;;;;;;5028366;28;20999;-81
2021/04/10 06:27:35;;;;;;;22.83;15.50;;;8.50;99.80;;;;;;5037568;28;20973;-81
2021/04/10 06:30:03;;;;;;;26.40;16.50;;;8.60;99.80;;;;;;5035670;28;20498;-80
2021/04/10 06:32:30;;;;;;;24.80;15.60;;;8.70;99.80;;;;;;5037546;28;20559;-81
2021/04/10 06:34:57;;;;;;;21.87;14.60;;;9.00;99.80;;;;;;5045113;28;20514;-80
2021/04/10 06:37:24;;;;;;;21.97;14.77;;;9.10;99.80;;;;;;5039918;28;20470;-82
2021/04/10 06:39:51;;;;;;;20.80;14.00;;;9.20;99.80;;;;;;5024647;28;20554;-82
2021/04/10 06:42:19;;;;;;;21.33;14.37;;;9.30;99.80;;;;;;5039146;28;21283;-81
2021/04/10 06:44:47;;;;;;;19.20;12.67;;;9.40;99.80;;;;;;5037673;28;20541;-81
2021/04/10 06:47:19;;;;;;;18.90;12.47;;;9.40;99.80;;;;;;5042480;28;20485;-81
2021/04/10 06:49:46;;;;;;;17.93;12.03;;;9.50;99.80;;;;;;5053317;28;20471;-82
2021/04/10 06:52:16;;;;;;;19.27;13.33;;;9.60;99.80;;;;;;5051625;28;20538;-81
2021/04/10 06:54:48;;;;;;;19.90;12.20;;;9.60;99.80;;;;;;5008606;28;20535;-81
2021/04/10 06:57:18;;;;;;;23.43;16.60;;;9.80;99.80;;;;;;5048448;28;20479;-82
2021/04/10 06:59:52;;;;;;;20.83;14.43;;;9.80;99.80;;;;;;5021520;28;20475;-83
2021/04/10 07:02:20;;;;;;;21.53;15.00;;;10.10;99.80;;;;;;5044811;28;21250;-84
2021/04/10 07:04:47;;;;;;;22.23;14.90;;;10.10;99.80;;;;;;5028922;28;20479;-84
2021/04/10 07:07:14;;;;;;;23.03;16.00;;;10.20;99.80;;;;;;5025774;28;20479;-84
2021/04/10 07:09:41;;;;;;;24.17;15.97;;;10.30;99.80;;;;;;5035359;28;20467;-85
2021/04/10 07:12:10;;;;;;;20.60;14.10;;;10.50;99.80;;;;;;5038451;28;20467;-84
2021/04/10 07:14:37;;;;;;;22.47;15.90;;;10.50;99.80;;;;;;5030753;28;20907;-85
2021/04/10 07:17:06;;;;;;;20.10;13.87;;;10.50;99.80;;;;;;5043021;28;20479;-84
2021/04/10 07:19:33;;;;;;;22.40;14.90;;;10.50;99.80;;;;;;5030491;28;20470;-85
2021/04/10 07:22:03;;;;;;;21.20;15.67;;;10.50;99.80;;;;;;5038121;28;20484;-82
2021/04/10 07:24:42;;;;;;;24.77;15.37;;;10.60;99.80;;;;;;5044177;28;21221;-81
2021/04/10 07:27:13;;;;;;;24.10;13.63;;;10.50;99.80;;;;;;5012392;28;20475;-84
2021/04/10 07:29:43;;;;;;;15.20;11.80;;;10.60;99.80;;;;;;5021494;28;20470;-84
2021/04/10 07:32:34;;;;;;;24.77;13.50;;;10.60;99.80;;;;;;5037007;28;20466;-83
2021/04/10 07:35:04;;;;;;;19.10;13.60;;;10.60;99.80;;;;;;5040709;28;20475;-82
2021/04/10 07:37:34;;;;;;;26.00;15.00;;;10.60;99.80;;;;;;5043640;28;20982;-82
2021/04/10 07:40:02;;;;;;;18.23;12.20;;;10.60;99.80;;;;;;5043993;28;20464;-86
2021/04/10 07:42:30;;;;;;;18.77;13.10;;;10.40;99.80;;;;;;5042470;28;20460;-83
2021/04/10 07:44:57;;;;;;;20.33;13.53;;;10.40;99.80;;;;;;5039764;28;20581;-84
2021/04/10 07:47:36;;;;;;;21.60;13.93;;;10.20;99.80;;;;;;5030759;28;20506;-83
2021/04/10 07:50:15;;;;;;;18.03;13.53;;;10.20;99.80;;;;;;5034253;28;20471;-85
2021/04/10 07:52:42;;;;;;;19.37;12.90;;;10.20;99.80;;;;;;5049815;28;20470;-84
2021/04/10 07:55:10;;;;;;;19.37;13.17;;;10.20;99.80;;;;;;5052055;28;20467;-83
2021/04/10 07:57:37;;;;;;;17.97;14.00;;;10.10;99.80;;;;;;5038270;28;20497;-82
2021/04/10 08:00:05;;;;;;;20.20;12.20;;;10.20;99.80;;;;;;5029021;28;20530;-83
2021/04/10 08:02:37;;;;;;;19.97;13.03;;;10.20;99.80;;;;;;5041457;28;20848;-83
2021/04/10 08:05:06;;;;;;;22.47;13.70;;;10.20;99.80;;;;;;5036116;28;20477;-83
2021/04/10 08:07:35;;;;;;;23.40;15.00;;;10.10;99.80;;;;;;5036973;28;20472;-85
2021/04/10 08:10:04;;;;;;;27.63;14.80;;;10.00;99.80;;;;;;5030348;28;20529;-84
2021/04/10 08:12:35;;;;;;;21.30;15.23;;;10.10;99.80;;;;;;5026424;28;21247;-85
2021/04/10 08:15:05;;;;;;;22.87;14.60;;;10.00;99.80;;;;;;5021515;28;20485;-84
2021/04/10 08:17:34;;;;;;;23.40;14.80;;;9.90;99.80;;;;;;5020686;28;21052;-83
2021/04/10 08:20:19;;;;;;;23.33;15.50;;;9.90;99.80;;;;;;5042335;28;20484;-84
2021/04/10 08:22:46;;;;;;;23.77;15.63;;;9.90;99.80;;;;;;5038127;28;20482;-84
2021/04/10 08:25:27;;;;;;;22.73;15.60;;;9.80;99.80;;;;;;5031878;28;20568;-84
2021/04/10 08:27:57;;;;;;;22.47;15.80;;;9.70;99.80;;;;;;5015596;28;20501;-83
2021/04/10 08:30:25;;;;;;;26.40;16.60;;;9.80;99.80;;;;;;5030658;28;20485;-84
2021/04/10 08:32:52;;;;;;;22.47;14.70;;;9.70;99.80;;;;;;5040779;28;20514;-84
2021/04/10 08:35:23;;;;;;;31.63;15.43;;;9.70;99.80;;;;;;5045230;28;20485;-82
2021/04/10 08:37:57;;;;;;;26.00;15.10;;;9.70;99.80;;;;;;5036741;28;20498;-84
2021/04/10 08:40:25;;;;;;;26.67;17.07;;;9.50;99.80;;;;;;5017886;28;21011;-85
2021/04/10 08:42:56;;;;;;;25.57;16.87;;;9.50;99.80;;;;;;5033421;28;20553;-84
2021/04/10 08:45:28;;;;;;;25.30;16.03;;;9.40;99.80;;;;;;5029233;28;21279;-84
2021/04/10 08:47:57;;;;;;;25.67;16.63;;;9.40;99.80;;;;;;5037959;28;20527;-85
2021/04/10 08:50:37;;;;;;;22.90;15.87;;;9.40;99.80;;;;;;5042674;28;20486;-84
2021/04/10 08:53:07;;;;;;;27.20;16.33;;;9.40;99.80;;;;;;5045452;28;20485;-84
2021/04/10 08:55:35;;;;;;;23.20;14.80;;;9.40;99.80;;;;;;5054920;28;20531;-85
2021/04/10 08:58:18;;;;;;;22.30;15.53;;;9.50;99.80;;;;;;5027961;28;20855;-83
2021/04/10 09:00:46;;;;;;;27.47;18.50;;;9.50;99.80;;;;;;5031429;28;21010;-84
2021/04/10 09:03:13;;;;;;;30.70;18.27;;;9.60;99.80;;;;;;5048158;28;20467;-83
2021/04/10 09:05:49;;;;;;;25.53;17.63;;;9.60;99.80;;;;;;5042782;28;20843;-83
2021/04/10 09:08:24;;;;;;;26.43;16.40;;;9.70;99.80;;;;;;5054104;28;20469;-84
2021/04/10 09:10:56;;;;;;;24.50;14.80;;;9.70;99.80;;;;;;5029610;28;20474;-83
2021/04/10 09:13:25;;;;;;;26.27;14.93;;;10.00;99.80;;;;;;5039998;28;20498;-83
2021/04/10 09:16:25;;;;;;;20.83;14.90;;;10.00;99.80;;;;;;5031680;28;21070;-84
2021/04/10 09:18:57;;;;;;;21.60;14.77;;;10.20;99.80;;;;;;5031163;28;20473;-85
2021/04/10 09:21:40;;;;;;;25.43;15.87;;;10.30;99.80;;;;;;5037396;28;20494;-86
2021/04/10 09:24:41;;;;;;;22.43;16.20;;;10.40;99.80;;;;;;5032251;28;20560;-85
2021/04/10 09:27:19;;;;;;;20.17;14.77;;;10.60;99.80;;;;;;4996869;28;20478;-83
2021/04/10 09:29:57;;;;;;;21.20;14.23;;;10.50;99.80;;;;;;5004947;28;20562;-84
2021/04/10 09:32:38;;;;;;;18.93;14.20;;;10.50;99.80;;;;;;5038393;28;20474;-85
2021/04/10 09:35:11;;;;;;;25.67;16.77;;;10.30;99.80;;;;;;5043140;28;20491;-82
2021/04/10 09:37:50;;;;;;;27.43;14.77;;;10.30;99.80;;;;;;5046574;28;20479;-83
2021/04/10 09:40:21;;;;;;;22.87;15.20;;;10.30;99.80;;;;;;5036686;28;20550;-83
2021/04/10 09:42:50;;;;;;;23.27;13.33;;;10.20;99.80;;;;;;5035662;28;20486;-83
2021/04/10 09:45:19;;;;;;;20.80;13.57;;;10.20;99.80;;;;;;5024945;28;20483;-83
2021/04/10 09:48:35;;;;;;;23.47;14.80;;;10.20;99.80;;;;;;5050010;28;20521;-84
2021/04/10 09:51:14;;;;;;;21.50;13.77;;;10.10;99.80;;;;;;5038455;28;20542;-84
2021/04/10 09:53:49;;;;;;;18.87;13.90;;;10.10;99.80;;;;;;5030513;28;20479;-86
2021/04/10 09:56:16;;;;;;;28.50;17.80;;;10.20;99.80;;;;;;5034337;28;20466;-84
2021/04/10 09:58:55;;;;;;;24.07;15.20;;;10.10;99.80;;;;;;5026338;28;20606;-84
2021/04/10 10:01:25;;;;;;;23.03;15.13;;;10.10;99.80;;;;;;4995460;28;20548;-84
2021/04/10 10:03:53;;;;;;;20.23;13.97;;;10.00;99.80;;;;;;5013557;28;20479;-84
2021/04/10 10:06:25;;;;;;;24.00;14.83;;;10.10;99.80;;;;;;5017706;28;20867;-84
2021/04/10 10:08:53;;;;;;;21.17;14.20;;;10.00;99.80;;;;;;5026296;28;21011;-84
2021/04/10 10:11:21;;;;;;;17.47;12.23;;;10.00;99.80;;;;;;5033325;28;20973;-86
2021/04/10 10:13:48;;;;;;;16.13;11.30;;;10.00;99.80;;;;;;5016363;28;20480;-85
2021/04/10 10:16:27;;;;;;;22.37;13.80;;;10.00;99.80;;;;;;5025381;28;20792;-84
2021/04/10 10:18:54;;;;;;;24.23;14.83;;;10.00;99.80;;;;;;5038305;28;20526;-87
2021/04/10 10:21:23;;;;;;;19.30;13.00;;;10.00;99.80;;;;;;5040095;28;20563;-85
2021/04/10 10:23:53;;;;;;;18.93;12.90;;;9.90;99.80;;;;;;5034422;28;20546;-86
2021/04/10 10:26:22;;;;;;;21.97;14.13;;;9.90;99.80;;;;;;5019270;28;20488;-86
2021/04/10 10:28:52;;;;;;;19.47;14.27;;;9.90;99.80;;;;;;5018874;28;20475;-85
2021/04/10 10:31:23;;;;;;;26.10;14.30;;;9.90;99.80;;;;;;5043122;28;20474;-85
2021/04/10 10:33:53;;;;;;;21.40;14.13;;;10.10;99.80;;;;;;5040124;28;21075;-84
2021/04/10 10:36:21;;;;;;;19.93;14.53;;;10.10;99.80;;;;;;5022781;28;20584;-84
2021/04/10 10:38:50;;;;;;;16.80;12.33;;;10.10;99.80;;;;;;5035608;28;20823;-83
2021/04/10 10:41:18;;;;;;;21.40;12.77;;;10.20;99.80;;;;;;5032770;28;20573;-83
2021/04/10 10:43:46;;;;;;;18.90;13.80;;;10.20;99.80;;;;;;5038785;28;20965;-85
2021/04/10 10:46:18;;;;;;;18.27;12.77;;;10.30;99.80;;;;;;5042867;28;20716;-85
2021/04/10 10:48:46;;;;;;;16.97;12.13;;;10.40;99.80;;;;;;5045766;28;20551;-84
2021/04/10 10:51:15;;;;;;;17.47;12.17;;;10.40;99.80;;;;;;5047298;28;20558;-83
2021/04/10 10:53:44;;;;;;;19.50;12.10;;;10.40;99.80;;;;;;5048076;28;20499;-84
2021/04/10 10:56:14;;;;;;;17.60;12.03;;;10.50;99.80;;;;;;5036427;28;20902;-84
2021/04/10 10:58:47;;;;;;;17.73;13.03;;;10.50;99.80;;;;;;5036324;28;20908;-83
2021/04/10 11:01:22;;;;;;;13.93;10.77;;;10.50;99.80;;;;;;5030485;28;20533;-84
2021/04/10 11:03:56;;;;;;;15.53;11.27;;;10.50;99.80;;;;;;5035881;28;21022;-84
2021/04/10 11:06:25;;;;;;;15.47;11.07;;;10.50;99.80;;;;;;5033031;28;20918;-84
2021/04/10 11:08:59;;;;;;;16.73;11.17;;;10.40;99.80;;;;;;5028600;28;20485;-85
2021/04/10 11:11:32;;;;;;;14.47;11.20;;;10.40;99.80;;;;;;5030486;28;20491;-84
2021/04/10 11:14:00;;;;;;;15.47;10.27;;;10.40;99.80;;;;;;5029727;28;20476;-84
2021/04/10 11:16:27;;;;;;;12.80;9.43;;;10.40;99.80;;;;;;5042484;28;20482;-83
2021/04/10 11:18:56;;;;;;;14.37;9.63;;;10.40;99.80;;;;;;5056319;28;20481;-84
2021/04/10 11:21:26;;;;;;;12.03;9.90;;;10.40;99.80;;;;;;5053856;28;20502;-83
2021/04/10 11:24:05;;;;;;;13.90;10.50;;;10.40;99.80;;;;;;5049731;28;20898;-84
2021/04/10 11:26:44;;;;;;;16.87;11.53;;;10.50;99.80;;;;;;5029015;28;21323;-84
2021/04/10 11:29:33;;;;;;;11.90;9.87;;;10.50;99.80;;;;;;5036991;28;20479;-84
2021/04/10 11:32:21;;;;;;;11.30;8.80;;;10.60;99.80;;;;;;5046788;28;20475;-85
2021/04/10 11:35:15;;;;;;;14.23;9.80;;;10.70;99.80;;;;;;5045154;28;21032;-84
2021/04/10 11:37:48;;;;;;;14.03;9.50;;;10.80;99.80;;;;;;5034338;28;20538;-83
2021/04/10 11:40:26;;;;;;;11.20;9.83;;;10.90;99.80;;;;;;5028418;28;20522;-84
2021/04/10 11:42:54;;;;;;;11.90;8.77;;;10.90;99.80;;;;;;5040502;28;20482;-85
2021/04/10 11:45:29;;;;;;;9.87;7.43;;;10.90;99.80;;;;;;5032169;28;20471;-85
2021/04/10 11:48:08;;;;;;;7.97;7.20;;;11.00;99.80;;;;;;5041384;28;20566;-84
2021/04/10 11:50:44;;;;;;;8.30;7.50;;;11.00;99.80;;;;;;5036999;28;20487;-81
2021/04/10 11:53:17;;;;;;;11.27;5.73;;;11.10;99.80;;;;;;5043618;28;20477;-84
2021/04/10 11:55:44;;;;;;;10.07;5.70;;;11.30;99.80;;;;;;5039479;28;20459;-85
2021/04/10 11:58:11;;;;;;;7.67;5.50;;;11.30;99.80;;;;;;5028345;28;20622;-85
2021/04/10 12:00:39;;;;;;;6.63;5.67;;;11.40;99.80;;;;;;5045337;28;21113;-85
2021/04/10 12:03:09;;;;;;;5.90;4.30;;;11.50;99.80;;;;;;5056089;28;20505;-87
2021/04/10 12:05:38;;;;;;;8.60;4.50;;;11.50;99.80;;;;;;5054826;28;20505;-86
2021/04/10 12:08:21;;;;;;;4.67;4.27;;;11.50;99.80;;;;;;5039919;28;20502;-84
2021/04/10 12:10:51;;;;;;;4.70;3.50;;;11.50;99.80;;;;;;5030902;28;20592;-85
2021/04/10 12:13:19;;;;;;;5.50;4.30;;;11.30;99.80;;;;;;5047146;28;20573;-83
2021/04/10 12:15:53;;;;;;;5.17;4.67;;;11.30;99.80;;;;;;5048103;28;20542;-83
2021/04/10 12:18:22;;;;;;;7.67;3.90;;;11.30;99.80;;;;;;5047439;28;20467;-83
2021/04/10 12:20:50;;;;;;;5.27;4.77;;;11.30;99.80;;;;;;5027065;28;20468;-84
2021/04/10 12:23:18;;;;;;;8.10;5.30;;;11.50;99.80;;;;;;5014758;28;20551;-84
2021/04/10 12:25:46;;;;;;;8.83;4.70;;;11.60;99.80;;;;;;5040468;28;20546;-83
2021/04/10 12:28:14;;;;;;;7.60;5.47;;;11.70;99.80;;;;;;5037547;28;20512;-83
2021/04/10 12:30:41;;;;;;;5.33;4.83;;;11.70;99.80;;;;;;5050558;28;20471;-84
2021/04/10 12:33:09;;;;;;;6.50;4.97;;;11.60;99.80;;;;;;5058234;28;20474;-83
2021/04/10 12:35:36;;;;;;;7.37;5.00;;;11.70;99.80;;;;;;5056189;28;20470;-83
2021/04/10 12:38:04;;;;;;;6.27;5.37;;;11.70;99.80;;;;;;5053974;28;20498;-85
2021/04/10 12:40:32;;;;;;;5.40;4.90;;;11.70;99.80;;;;;;5041695;28;20605;-84
2021/04/10 12:42:59;;;;;;;5.30;4.80;;;11.70;99.80;;;;;;5051137;28;20523;-85
2021/04/10 12:45:29;;;;;;;9.73;5.40;;;11.70;99.80;;;;;;5032999;28;20526;-84
2021/04/10 12:47:56;;;;;;;6.70;5.80;;;11.70;99.80;;;;;;5052246;28;21195;-84
2021/04/10 12:50:26;;;;;;;7.93;5.30;;;11.70;99.80;;;;;;5048855;28;20491;-86
2021/04/10 12:52:53;;;;;;;5.63;4.60;;;12.00;99.80;;;;;;5057413;28;20485;-83